Bartow, WV (24920)

3:33 AM EDT on August 28, 2015 (GMT -0400)
Spruce Knob Mountain Center | | Change Station
CLOSE
Current Station
Personal Weather Station
Location: Circleville, WV
Elevation: 4068 ft
Nearby Weather Stations

Elev 4068 ft 38.68 °N, 79.56 °W | Updated 47 seconds ago

Partly Cloudy
Partly Cloudy
53.8 °F
Feels Like 53.8 °F
N
2.0
Wind Variable Wind from ESE
Gusts 4.0 mph

Today
High -- | Low -- °F
--% Chance of Precip.
Yesterday
High -- | Low -- °F
Precip. -- in
6:44 AM 7:55 PM
Waxing Gibbous, 97% visible
Pressure 30.21 in
Visibility 8.0 miles
Clouds Clear
Dew Point 50 °F
Humidity 85%
Rainfall 0.00 in
Snow Depth Not available.
UV 0 out of 12
Pollen 8.70 out of 12
Air Quality Not available.
Flu Activity Not available.
METAR KEKN 280651Z AUTO 00000KT 8SM CLR 10/09 A3021 RMK AO2 SLP229 T01000089 TSNO
Pressure 30.21 in
Visibility 8.0 miles
Clouds Clear
Dew Point 50 °F
Humidity 85%
Rainfall 0.00 in
Snow Depth Not available.
UV 0 out of 12
Pollen 8.70 out of 12
Air Quality Not available.
Flu Activity Not available.
METAR KEKN 280651Z AUTO 00000KT 8SM CLR 10/09 A3021 RMK AO2 SLP229 T01000089 TSNO

10-Day Weather Forecast

×

Almanac

Astronomy

Aug. 28, 2015 Rise Set
Actual Time
Civil Twilight
Nautical Twilight
Astronomical Twilight
Moon
Length of Visible Light
Length of Day
Tomorrow will be .
, % of the Moon is Illuminated

Today's Extremes

State Highs State Lows

Community

WunderPhotos

Upload Photos

1,850,344 photos uploaded!

WunderBlogs® & News

Nearby

Air Quality

  Air Quality AQ Index Pollutant
Not available.

Snow Depth

Station Depth Elevation

Earthquake Activity

City Distance Mag. Time & Date
Minimum magnitude displayed is 2.5.

Coastal Water Temperatures

Place Temperature

Stations

Nearby Weather Stations

Station Location Temp. Windchill Dew Point Humidity Wind Precip. Elev Updated Type